createdAt,value
2016-11-29T00:00:27.697Z,98.2
2016-11-29T00:00:55.301Z,98.2
2016-11-29T00:01:23.375Z,98.3
2016-11-29T00:01:50.990Z,96.84
2016-11-29T00:02:18.870Z,96.65
2016-11-29T00:02:46.487Z,96.84
2016-11-29T00:03:14.089Z,97.33
2016-11-29T00:03:41.661Z,97.33
2016-11-29T00:04:09.279Z,96.17
2016-11-29T00:04:36.862Z,96.65
2016-11-29T00:05:04.486Z,96.75
2016-11-29T00:05:32.082Z,96.46
2016-11-29T00:05:59.687Z,96.36
2016-11-29T00:06:27.328Z,95.98
2016-11-29T00:06:55.442Z,96.65
2016-11-29T00:07:23.009Z,96.8
2016-11-29T00:07:51.182Z,98.1
2016-11-29T00:08:18.999Z,97.72
2016-11-29T00:08:47.199Z,96.94
2016-11-29T00:09:14.858Z,96.84
2016-11-29T00:09:42.429Z,96.84
2016-11-29T00:10:09.962Z,96.61
2016-11-29T00:10:37.542Z,97.28
2016-11-29T00:11:05.448Z,96.36
2016-11-29T00:11:33.126Z,95.88
2016-11-29T00:12:00.766Z,95.78
2016-11-29T00:12:28.724Z,96.36
2016-11-29T00:12:56.613Z,96.36
2016-11-29T00:13:24.244Z,96.56
2016-11-29T00:13:51.802Z,96.84
2016-11-29T00:14:19.624Z,96.26
2016-11-29T00:14:47.485Z,95.98
2016-11-29T00:15:15.515Z,96.65
2016-11-29T00:15:43.125Z,96.75
2016-11-29T00:16:10.940Z,96.65
2016-11-29T00:16:38.572Z,97.23
2016-11-29T00:17:06.178Z,97.14
2016-11-29T00:17:33.816Z,96.46
2016-11-29T00:18:01.375Z,96.46
2016-11-29T00:18:29.025Z,96.17
2016-11-29T00:18:56.620Z,96.17
2016-11-29T00:19:24.499Z,96.36
2016-11-29T00:19:52.085Z,96.56
2016-11-29T00:20:20.019Z,97.23
2016-11-29T00:20:47.931Z,97.23
2016-11-29T00:21:15.770Z,97.47
2016-11-29T00:21:43.867Z,97.28
2016-11-29T00:22:11.780Z,96.75
2016-11-29T00:22:39.326Z,97.42
2016-11-29T00:23:06.920Z,97.42
2016-11-29T00:23:34.860Z,98.05
2016-11-29T00:24:02.401Z,97.86
2016-11-29T00:24:29.970Z,97.81
2016-11-29T00:24:57.939Z,97.42
2016-11-29T00:25:25.643Z,96.94
2016-11-29T00:25:53.523Z,96.75
2016-11-29T00:26:21.232Z,96.56
2016-11-29T00:26:48.949Z,96.26
2016-11-29T00:27:16.905Z,96.65
2016-11-29T00:27:44.786Z,97.14
2016-11-29T00:28:12.421Z,97.14
2016-11-29T00:28:40.244Z,96.94
2016-11-29T00:29:07.873Z,97.33
2016-11-29T00:29:35.584Z,97.04
2016-11-29T00:30:03.296Z,96.65
2016-11-29T00:30:30.876Z,96.26
2016-11-29T00:30:59.092Z,96.56
2016-11-29T00:31:27.048Z,96.84
2016-11-29T00:31:54.706Z,97.14
2016-11-29T00:32:22.305Z,97.42
2016-11-29T00:32:49.939Z,97.33
2016-11-29T00:33:17.587Z,96.65
2016-11-29T00:33:45.526Z,97.33
2016-11-29T00:34:13.180Z,97.52
2016-11-29T00:34:40.824Z,98.1
2016-11-29T00:35:09.245Z,98.1
2016-11-29T00:35:36.791Z,98
2016-11-29T00:36:04.463Z,98.2
2016-11-29T00:36:32.393Z,98.2
2016-11-29T00:37:00.222Z,98.78
2016-11-29T00:37:27.818Z,98.88
2016-11-29T00:37:55.702Z,98.58
2016-11-29T00:38:23.673Z,98.68
2016-11-29T00:38:51.275Z,98.58
2016-11-29T00:39:18.972Z,98.68
2016-11-29T00:39:46.620Z,98
2016-11-29T00:40:29.211Z,97.91
2016-11-29T00:40:56.904Z,98.2
2016-11-29T00:41:25.450Z,97.91
2016-11-29T00:41:53.154Z,98.1
2016-11-29T00:42:20.789Z,98.88
2016-11-29T00:42:48.974Z,98.78
2016-11-29T00:43:16.636Z,98.39
2016-11-29T00:43:44.225Z,98.3
2016-11-29T00:44:12.156Z,99.16
2016-11-29T00:44:39.756Z,99.99
2016-11-29T00:45:07.344Z,99.99
2016-11-29T00:45:35.276Z,99.99
2016-11-29T00:46:03.224Z,99.94
2016-11-29T00:46:31.171Z,99.99
2016-11-29T00:46:59.045Z,99.46
2016-11-29T00:47:26.939Z,99.99
2016-11-29T00:47:54.785Z,99.07
2016-11-29T00:48:22.375Z,99.36
2016-11-29T00:48:49.999Z,99.55
2016-11-29T00:49:18.197Z,98.97
2016-11-29T00:49:45.856Z,98.97
2016-11-29T00:50:14.046Z,99.16
2016-11-29T00:50:42.192Z,99.07
2016-11-29T00:51:10.171Z,99.36
2016-11-29T00:51:37.816Z,99.16
2016-11-29T00:52:05.931Z,99.36
2016-11-29T00:52:33.565Z,99.55
2016-11-29T00:53:01.777Z,99.74
2016-11-29T00:53:29.713Z,99.26
2016-11-29T00:53:57.279Z,99.41
2016-11-29T00:54:24.914Z,99.46
2016-11-29T00:54:52.539Z,99.16
2016-11-29T00:55:20.248Z,99.65
2016-11-29T00:55:47.896Z,99.36
2016-11-29T00:56:15.585Z,99.74
2016-11-29T00:56:43.188Z,99.74
2016-11-29T00:57:11.122Z,99.99
2016-11-29T00:57:39.036Z,99.99
2016-11-29T00:58:07.442Z,99.99
2016-11-29T00:58:35.020Z,99.99
2016-11-29T00:59:02.644Z,99.99
2016-11-29T00:59:30.585Z,99.21
2016-11-29T00:59:58.189Z,99.41
2016-11-29T01:00:26.134Z,99.6
2016-11-29T01:00:53.771Z,99.21
2016-11-29T01:01:21.688Z,98.83
2016-11-29T01:01:49.536Z,98.44
2016-11-29T01:02:17.560Z,98.93
2016-11-29T01:02:45.443Z,98.93
2016-11-29T01:03:13.053Z,98.93
2016-11-29T01:03:40.703Z,98.44
2016-11-29T01:04:08.616Z,98.83
2016-11-29T01:04:36.225Z,98.83
2016-11-29T01:05:03.820Z,98.35
2016-11-29T01:05:31.752Z,98.83
2016-11-29T01:05:59.713Z,98.93
2016-11-29T01:06:27.631Z,98.83
2016-11-29T01:06:55.542Z,98.44
2016-11-29T01:07:23.476Z,98.73
2016-11-29T01:07:51.033Z,98.93
2016-11-29T01:08:18.653Z,99.02
2016-11-29T01:08:46.498Z,98.73
2016-11-29T01:09:14.427Z,99.11
2016-11-29T01:09:42.422Z,98.93
2016-11-29T01:10:10.083Z,98.93
2016-11-29T01:10:37.714Z,98.63
2016-11-29T01:11:05.327Z,99.69
2016-11-29T01:11:33.225Z,99.46
2016-11-29T01:12:01.354Z,99.36
2016-11-29T01:12:29.277Z,99.36
2016-11-29T01:12:56.881Z,99.51
2016-11-29T01:13:24.484Z,99.07
2016-11-29T01:13:52.115Z,98.88
2016-11-29T01:14:19.718Z,99.99
2016-11-29T01:14:47.693Z,99.99
2016-11-29T01:15:15.317Z,99.99
2016-11-29T01:15:42.942Z,99.99
2016-11-29T01:16:10.810Z,99.99
2016-11-29T01:16:38.435Z,99.99
2016-11-29T01:17:06.023Z,99.99
2016-11-29T01:17:33.622Z,99.99
2016-11-29T01:18:01.476Z,99.99
2016-11-29T01:18:29.293Z,99.99
2016-11-29T01:18:57.229Z,99.99
2016-11-29T01:19:24.876Z,99.99
2016-11-29T01:19:53.044Z,99.99
2016-11-29T01:20:20.998Z,99.99
2016-11-29T01:20:48.687Z,99.99
2016-11-29T01:21:16.586Z,99.99
2016-11-29T01:21:44.513Z,99.99
2016-11-29T01:22:12.609Z,99.99
2016-11-29T01:22:40.246Z,99.99
2016-11-29T01:23:07.874Z,99.99
2016-11-29T01:23:35.733Z,99.99
2016-11-29T01:24:03.366Z,99.99
2016-11-29T01:24:31.263Z,99.99
2016-11-29T01:24:58.934Z,99.99
2016-11-29T01:25:27.263Z,99.74
2016-11-29T01:25:55.138Z,99.99
2016-11-29T01:26:22.784Z,99.89
2016-11-29T01:26:50.632Z,99.99
2016-11-29T01:27:18.244Z,99.99
2016-11-29T01:27:46.110Z,99.99
2016-11-29T01:28:13.984Z,99.99
2016-11-29T01:28:41.639Z,99.99
2016-11-29T01:29:09.354Z,99.99
2016-11-29T01:29:37.034Z,99.99
2016-11-29T01:30:04.692Z,99.99
2016-11-29T01:30:32.605Z,99.21
2016-11-29T01:31:00.229Z,98.83
2016-11-29T01:31:28.114Z,98.93
2016-11-29T01:31:56.677Z,99.51
2016-11-29T01:32:24.726Z,99.99
2016-11-29T01:32:52.658Z,99.89
2016-11-29T01:33:20.503Z,99.99
2016-11-29T01:33:48.095Z,99.99
2016-11-29T01:34:15.769Z,99.99
2016-11-29T01:34:43.433Z,99.11
2016-11-29T01:35:11.423Z,99.69
2016-11-29T01:35:39.345Z,98.83
2016-11-29T01:36:06.924Z,99.21
2016-11-29T01:36:34.524Z,98.83
2016-11-29T01:37:02.447Z,98.73
2016-11-29T01:37:30.189Z,99.02
2016-11-29T01:37:57.843Z,99.21
2016-11-29T01:38:25.437Z,99.21
2016-11-29T01:38:53.080Z,99.31
2016-11-29T01:39:20.980Z,99.31
2016-11-29T01:39:48.624Z,99.99
2016-11-29T01:40:16.259Z,99.99
2016-11-29T01:40:43.924Z,99.79
2016-11-29T01:41:11.901Z,98.83
2016-11-29T01:41:39.501Z,98.83
2016-11-29T01:42:07.726Z,98.63
2016-11-29T01:42:35.931Z,97.96
2016-11-29T01:43:03.541Z,97.67
2016-11-29T01:43:31.436Z,98.25
2016-11-29T01:43:59.049Z,98.93
2016-11-29T01:44:26.989Z,98.35
2016-11-29T01:44:54.906Z,99.11
2016-11-29T01:45:22.579Z,98.93
2016-11-29T01:45:50.249Z,99.11
2016-11-29T01:46:17.892Z,99.6
2016-11-29T01:46:46.127Z,99.31
2016-11-29T01:47:14.536Z,99.51
2016-11-29T01:47:42.103Z,99.21
2016-11-29T01:48:09.719Z,99.41
2016-11-29T01:48:37.926Z,99.41
2016-11-29T01:49:05.539Z,99.51
2016-11-29T01:49:33.464Z,99.99
2016-11-29T01:50:01.225Z,99.99
2016-11-29T01:50:29.042Z,99.99
2016-11-29T01:50:57.210Z,99.69
2016-11-29T01:51:24.834Z,99.41
2016-11-29T01:51:52.447Z,99.21
2016-11-29T01:52:20.037Z,99.11
2016-11-29T01:52:48.275Z,97.77
2016-11-29T01:53:15.919Z,98.25
2016-11-29T01:53:43.865Z,97.47
2016-11-29T01:54:11.792Z,97.47
2016-11-29T01:54:40.077Z,97.47
2016-11-29T01:55:07.640Z,98.15
2016-11-29T01:55:36.081Z,98.05
2016-11-29T01:56:03.640Z,97.86
2016-11-29T01:56:31.301Z,98.25
2016-11-29T01:56:58.834Z,97.77
2016-11-29T01:57:26.902Z,97.96
2016-11-29T01:57:54.566Z,97.67
2016-11-29T01:58:22.233Z,98.05
2016-11-29T01:58:50.421Z,97.38
2016-11-29T01:59:18.058Z,97.57
2016-11-29T01:59:45.988Z,98.05
2016-11-29T02:00:13.932Z,98.05
2016-11-29T02:00:41.636Z,97.86
2016-11-29T02:01:09.822Z,96.89
2016-11-29T02:01:37.661Z,95.93
2016-11-29T02:02:05.534Z,96.8
2016-11-29T02:02:33.122Z,96.8
2016-11-29T02:03:00.812Z,96.6
2016-11-29T02:03:28.404Z,96.8
2016-11-29T02:03:56.429Z,96.8
2016-11-29T02:04:24.072Z,96.22
2016-11-29T02:04:51.628Z,96.31
2016-11-29T02:05:34.127Z,95.64
2016-11-29T02:06:01.676Z,95.06
2016-11-29T02:06:29.505Z,95.93
2016-11-29T02:06:57.167Z,95.83
2016-11-29T02:07:24.951Z,95.15
2016-11-29T02:07:52.614Z,94.86
2016-11-29T02:08:20.516Z,95.34
2016-11-29T02:08:48.133Z,95.93
2016-11-29T02:09:16.094Z,96.12
2016-11-29T02:09:44.246Z,95.64
2016-11-29T02:10:12.444Z,95.44
2016-11-29T02:10:40.364Z,96.12
2016-11-29T02:11:08.068Z,95.06
2016-11-29T02:11:35.625Z,94.76
2016-11-29T02:12:03.579Z,94.67
2016-11-29T02:12:31.271Z,94.76
2016-11-29T02:12:59.171Z,94.38
2016-11-29T02:13:26.740Z,94.86
2016-11-29T02:13:54.623Z,94.96
2016-11-29T02:14:22.287Z,94.48
2016-11-29T02:14:50.201Z,94.96
2016-11-29T02:15:18.077Z,94.28
2016-11-29T02:15:45.994Z,94.18
2016-11-29T02:16:13.665Z,94.76
2016-11-29T02:16:41.281Z,94.48
2016-11-29T02:17:08.967Z,94.57
2016-11-29T02:17:36.603Z,94.18
2016-11-29T02:18:04.210Z,94.18
2016-11-29T02:18:31.798Z,94.48
2016-11-29T02:18:59.452Z,94.76
2016-11-29T02:19:27.252Z,94.57
2016-11-29T02:19:54.831Z,95.06
2016-11-29T02:20:22.779Z,94.86
2016-11-29T02:20:51.071Z,95.15
2016-11-29T02:21:18.733Z,95.73
2016-11-29T02:21:46.627Z,95.06
2016-11-29T02:22:14.152Z,94.86
2016-11-29T02:22:42.296Z,94.96
2016-11-29T02:23:10.239Z,94.86
2016-11-29T02:23:38.200Z,94.76
2016-11-29T02:24:06.166Z,94.86
2016-11-29T02:24:34.123Z,95.64
2016-11-29T02:25:02.059Z,96.6
2016-11-29T02:25:29.971Z,96.31
2016-11-29T02:25:57.913Z,96.99
2016-11-29T02:26:25.495Z,97.09
2016-11-29T02:26:53.424Z,97.38
2016-11-29T02:27:21.122Z,97.67
2016-11-29T02:27:49.129Z,97.96
2016-11-29T02:28:17.160Z,97.96
2016-11-29T02:28:44.916Z,98.35
2016-11-29T02:29:12.643Z,98.15
2016-11-29T02:29:40.263Z,98.44
2016-11-29T02:30:07.926Z,97.47
2016-11-29T02:30:35.585Z,97.67
2016-11-29T02:31:03.211Z,97.28
2016-11-29T02:31:30.829Z,96.99
2016-11-29T02:31:58.454Z,96.99
2016-11-29T02:32:26.132Z,97.38
2016-11-29T02:32:53.795Z,96.02
2016-11-29T02:33:21.738Z,95.54
2016-11-29T02:33:49.345Z,94.96
2016-11-29T02:34:17.575Z,95.15
2016-11-29T02:34:45.210Z,94.67
2016-11-29T02:35:12.875Z,93.8
2016-11-29T02:35:40.577Z,94.09
2016-11-29T02:36:08.450Z,93.6
2016-11-29T02:36:36.064Z,94.09
2016-11-29T02:37:04.304Z,94.38
2016-11-29T02:37:31.977Z,94.18
2016-11-29T02:37:59.563Z,94.09
2016-11-29T02:38:27.765Z,94.18
2016-11-29T02:38:55.735Z,93.6
2016-11-29T02:39:23.368Z,93.22
2016-11-29T02:39:51.043Z,93.7
2016-11-29T02:40:18.939Z,93.8
2016-11-29T02:40:46.605Z,93.6
2016-11-29T02:41:14.810Z,93.22
2016-11-29T02:41:42.451Z,92.83
2016-11-29T02:42:10.084Z,93.02
2016-11-29T02:42:37.962Z,93.22
2016-11-29T02:43:05.563Z,93.8
2016-11-29T02:43:33.244Z,93.6
2016-11-29T02:44:00.901Z,93.6
2016-11-29T02:44:28.631Z,93.9
2016-11-29T02:44:56.301Z,92.93
2016-11-29T02:45:23.941Z,92.83
2016-11-29T02:45:51.512Z,92.64
2016-11-29T02:46:19.449Z,93.12
2016-11-29T02:46:47.075Z,92.93
2016-11-29T02:47:15.219Z,92.74
2016-11-29T02:47:43.159Z,92.74
2016-11-29T02:48:11.334Z,92.93
2016-11-29T02:48:38.918Z,92.83
2016-11-29T02:49:06.471Z,93.32
2016-11-29T02:49:34.336Z,94.48
2016-11-29T02:50:01.979Z,94.86
2016-11-29T02:50:29.597Z,95.06
2016-11-29T02:50:57.284Z,94.18
2016-11-29T02:51:24.945Z,93.99
2016-11-29T02:51:52.914Z,93.99
2016-11-29T02:52:20.538Z,93.99
2016-11-29T02:52:48.481Z,94.09
2016-11-29T02:53:16.468Z,94.96
2016-11-29T02:53:44.131Z,94.67
2016-11-29T02:54:12.059Z,93.99
2016-11-29T02:54:39.969Z,94.96
2016-11-29T02:55:07.582Z,94.09
2016-11-29T02:55:35.517Z,94.86
2016-11-29T02:56:03.134Z,94.67
2016-11-29T02:56:30.704Z,94.76
2016-11-29T02:56:58.384Z,94.09
2016-11-29T02:57:26.238Z,95.06
2016-11-29T02:57:54.414Z,93.7
2016-11-29T02:58:22.002Z,94.18
2016-11-29T02:58:49.601Z,94.28
2016-11-29T02:59:17.268Z,94.28
2016-11-29T02:59:44.884Z,94.96
2016-11-29T03:00:12.479Z,94.67
2016-11-29T03:00:40.102Z,94.86
2016-11-29T03:01:07.745Z,94.96
2016-11-29T03:01:35.307Z,95.64
2016-11-29T03:02:02.960Z,95.44
2016-11-29T03:02:30.853Z,94.96
2016-11-29T03:02:58.980Z,95.15
2016-11-29T03:03:27.119Z,94.28
2016-11-29T03:03:54.750Z,94.28
2016-11-29T03:04:22.370Z,93.8
2016-11-29T03:04:50.316Z,94.48
2016-11-29T03:05:18.290Z,94.28
2016-11-29T03:05:46.175Z,94.76
2016-11-29T03:06:13.999Z,94.28
2016-11-29T03:06:41.569Z,94.09
2016-11-29T03:07:09.142Z,94.38
2016-11-29T03:07:36.811Z,94.38
2016-11-29T03:08:04.439Z,94.28
2016-11-29T03:08:32.345Z,94.18
2016-11-29T03:09:00.256Z,94.48
2016-11-29T03:09:28.137Z,94.48
2016-11-29T03:09:56.072Z,94.67
2016-11-29T03:10:24.313Z,94.57
2016-11-29T03:10:52.232Z,94.48
2016-11-29T03:11:19.897Z,94.57
2016-11-29T03:11:47.802Z,94.86
2016-11-29T03:12:16.081Z,95.15
2016-11-29T03:12:43.682Z,94.67
2016-11-29T03:13:11.343Z,94.57
2016-11-29T03:13:39.217Z,93.6
2016-11-29T03:14:07.170Z,94.33
2016-11-29T03:14:34.760Z,94.33
2016-11-29T03:15:02.698Z,94.43
2016-11-29T03:15:30.621Z,95.2
2016-11-29T03:15:58.454Z,97.14
2016-11-29T03:16:26.408Z,97.72
2016-11-29T03:16:54.688Z,98.49
2016-11-29T03:17:22.432Z,96.56
2016-11-29T03:17:50.135Z,96.94
2016-11-29T03:18:17.919Z,96.75
2016-11-29T03:18:45.561Z,97.23
2016-11-29T03:19:13.792Z,97.52
2016-11-29T03:19:41.654Z,97.33
2016-11-29T03:20:09.604Z,97.62
2016-11-29T03:20:37.444Z,97.86
2016-11-29T03:21:05.346Z,98.44
2016-11-29T03:21:32.944Z,99.69
2016-11-29T03:22:00.883Z,99.31
2016-11-29T03:22:28.537Z,99.99
2016-11-29T03:22:56.690Z,99.99
2016-11-29T03:23:24.281Z,99.99
2016-11-29T03:23:51.885Z,99.99
2016-11-29T03:24:19.452Z,99.99
2016-11-29T03:24:47.361Z,99.99
2016-11-29T03:25:14.981Z,99.99
2016-11-29T03:25:42.539Z,99.99
2016-11-29T03:26:10.493Z,99.99
2016-11-29T03:26:38.403Z,99.99
2016-11-29T03:27:05.956Z,99.99
2016-11-29T03:27:33.573Z,99.99
2016-11-29T03:28:01.868Z,99.99
2016-11-29T03:28:29.417Z,99.99
2016-11-29T03:28:57.033Z,99.99
2016-11-29T03:29:24.669Z,99.99
2016-11-29T03:29:52.319Z,99.99
2016-11-29T03:30:20.292Z,99.99
2016-11-29T03:30:48.143Z,99.99
2016-11-29T03:31:16.009Z,99.99
2016-11-29T03:31:43.604Z,99.99
2016-11-29T03:32:11.538Z,99.99
2016-11-29T03:32:39.439Z,99.99
2016-11-29T03:33:07.041Z,99.99
2016-11-29T03:33:34.976Z,99.99
2016-11-29T03:34:02.556Z,99.99
2016-11-29T03:34:30.153Z,99.99
2016-11-29T03:34:57.786Z,99.99
2016-11-29T03:35:25.390Z,99.99
2016-11-29T03:35:52.988Z,99.99
2016-11-29T03:36:20.843Z,99.99
2016-11-29T03:36:48.764Z,99.99
2016-11-29T03:37:16.728Z,99.99
2016-11-29T03:37:44.694Z,99.99
2016-11-29T03:38:12.784Z,99.99
2016-11-29T03:38:40.437Z,99.99
2016-11-29T03:39:08.023Z,99.99
2016-11-29T03:39:35.563Z,99.99
2016-11-29T03:40:03.570Z,99.99
2016-11-29T03:40:31.171Z,99.99
2016-11-29T03:40:58.804Z,99.99
2016-11-29T03:41:26.990Z,99.99
2016-11-29T03:41:54.632Z,99.99
2016-11-29T03:42:22.199Z,99.99
2016-11-29T03:42:50.137Z,99.99
2016-11-29T03:43:18.204Z,99.99
2016-11-29T03:43:45.854Z,99.99
2016-11-29T03:44:13.513Z,99.99
2016-11-29T03:44:41.468Z,99.99
2016-11-29T03:45:09.061Z,99.99
2016-11-29T03:45:36.668Z,99.99
2016-11-29T03:46:04.303Z,99.99
2016-11-29T03:46:32.223Z,99.99
2016-11-29T03:46:59.867Z,99.99
2016-11-29T03:47:27.396Z,99.99
2016-11-29T03:47:55.348Z,99.99
2016-11-29T03:48:23.301Z,99.99
2016-11-29T03:48:50.938Z,99.99
2016-11-29T03:49:18.543Z,99.99
2016-11-29T03:49:46.225Z,99.99
2016-11-29T03:50:13.946Z,99.99
2016-11-29T03:50:42.053Z,99.99
2016-11-29T03:51:10.007Z,99.99
2016-11-29T03:51:37.662Z,99.99
2016-11-29T03:52:05.256Z,99.99
2016-11-29T03:52:33.194Z,99.99
2016-11-29T03:53:01.318Z,99.99
2016-11-29T03:53:28.915Z,99.99
2016-11-29T03:53:56.560Z,99.99
2016-11-29T03:54:24.209Z,99.99
2016-11-29T03:54:51.842Z,99.99
2016-11-29T03:55:19.714Z,99.99
2016-11-29T03:55:47.308Z,99.99
2016-11-29T03:56:14.923Z,99.99
2016-11-29T03:56:43.048Z,99.99
2016-11-29T03:57:10.944Z,99.99
2016-11-29T03:57:38.509Z,99.99
2016-11-29T03:58:06.408Z,99.99
2016-11-29T03:58:34.099Z,99.99
2016-11-29T03:59:02.051Z,99.99
2016-11-29T03:59:29.693Z,99.99
2016-11-29T03:59:57.294Z,99.99
2016-11-29T04:00:24.910Z,99.99
2016-11-29T04:00:52.538Z,99.99
2016-11-29T04:01:20.126Z,99.99
2016-11-29T04:01:47.723Z,99.99
2016-11-29T04:02:15.332Z,99.99
2016-11-29T04:02:43.205Z,99.99
2016-11-29T04:03:10.915Z,99.99
2016-11-29T04:03:53.781Z,99.99
2016-11-29T04:04:21.788Z,99.99
2016-11-29T04:04:49.998Z,99.99
2016-11-29T04:05:18.185Z,99.99
2016-11-29T04:05:45.869Z,99.99
2016-11-29T04:06:13.518Z,99.99
2016-11-29T04:06:41.191Z,99.99
2016-11-29T04:07:09.165Z,99.99
2016-11-29T04:07:36.838Z,99.99
2016-11-29T04:08:04.424Z,99.99
2016-11-29T04:08:32.327Z,99.99
2016-11-29T04:08:59.921Z,99.99
2016-11-29T04:09:27.900Z,99.99
2016-11-29T04:09:55.570Z,99.99
2016-11-29T04:10:23.204Z,99.99
2016-11-29T04:10:50.845Z,99.99
2016-11-29T04:11:18.698Z,99.99
2016-11-29T04:11:46.303Z,99.99
2016-11-29T04:12:14.258Z,99.99
2016-11-29T04:12:41.920Z,99.99
2016-11-29T04:13:09.567Z,99.99
2016-11-29T04:13:37.534Z,99.99
2016-11-29T04:14:05.481Z,99.99
2016-11-29T04:14:33.447Z,99.99
2016-11-29T04:15:01.016Z,99.99
2016-11-29T04:15:28.894Z,99.99
2016-11-29T04:15:56.557Z,99.99
2016-11-29T04:16:24.145Z,99.99
2016-11-29T04:16:52.107Z,99.99
2016-11-29T04:17:19.743Z,99.99
2016-11-29T04:17:47.724Z,99.99
2016-11-29T04:18:15.633Z,99.99
2016-11-29T04:18:43.337Z,99.99
2016-11-29T04:19:10.995Z,99.99
2016-11-29T04:19:38.870Z,99.99
2016-11-29T04:20:06.776Z,99.99
2016-11-29T04:20:34.410Z,99.99
2016-11-29T04:21:02.380Z,99.99
2016-11-29T04:21:30.281Z,99.99
2016-11-29T04:21:57.911Z,99.99
2016-11-29T04:22:25.543Z,99.99
2016-11-29T04:22:53.150Z,99.99
2016-11-29T04:23:21.134Z,99.99
2016-11-29T04:23:48.716Z,99.99
2016-11-29T04:24:16.572Z,99.99
2016-11-29T04:24:44.235Z,99.99
2016-11-29T04:25:12.158Z,99.99
2016-11-29T04:25:39.806Z,99.99
2016-11-29T04:26:07.479Z,99.99
2016-11-29T04:26:35.429Z,99.99
2016-11-29T04:27:03.673Z,99.99
2016-11-29T04:27:31.274Z,99.99
2016-11-29T04:27:58.884Z,99.99
2016-11-29T04:28:26.838Z,99.99
2016-11-29T04:28:54.719Z,99.99
2016-11-29T04:29:22.333Z,99.99
2016-11-29T04:29:50.198Z,99.99
2016-11-29T04:30:18.333Z,99.99
2016-11-29T04:30:46.182Z,99.99
2016-11-29T04:31:14.131Z,99.99
2016-11-29T04:31:41.798Z,99.99
2016-11-29T04:32:09.924Z,99.99
2016-11-29T04:32:37.459Z,99.99
2016-11-29T04:33:05.388Z,99.99
2016-11-29T04:33:33.219Z,99.99
2016-11-29T04:34:01.141Z,99.99
2016-11-29T04:34:28.753Z,99.99
2016-11-29T04:34:56.693Z,99.99
2016-11-29T04:35:24.273Z,99.99
2016-11-29T04:35:52.161Z,99.99
2016-11-29T04:36:19.806Z,99.99
2016-11-29T04:36:47.738Z,99.99
2016-11-29T04:37:15.713Z,99.99
2016-11-29T04:37:43.301Z,99.99
2016-11-29T04:38:10.945Z,99.99
2016-11-29T04:38:38.850Z,99.99
2016-11-29T04:39:06.765Z,99.99
2016-11-29T04:39:35.147Z,99.99
2016-11-29T04:40:02.802Z,99.99
2016-11-29T04:40:31.019Z,99.99
2016-11-29T04:40:58.897Z,99.99
2016-11-29T04:41:26.734Z,99.99
2016-11-29T04:41:54.902Z,99.99
2016-11-29T04:42:22.542Z,99.99
2016-11-29T04:42:50.404Z,99.99
2016-11-29T04:43:18.672Z,99.99
2016-11-29T04:43:46.577Z,99.99
2016-11-29T04:44:14.284Z,99.99
2016-11-29T04:44:41.971Z,99.99
2016-11-29T04:45:09.641Z,99.99
2016-11-29T04:45:37.237Z,99.99
2016-11-29T04:46:04.867Z,99.99
2016-11-29T04:46:32.477Z,99.99
2016-11-29T04:47:00.073Z,99.99
2016-11-29T04:47:27.974Z,99.99
2016-11-29T04:47:55.656Z,99.99
2016-11-29T04:48:23.335Z,99.99
2016-11-29T04:48:51.168Z,99.99
2016-11-29T04:49:19.389Z,99.99
2016-11-29T04:49:47.066Z,99.99
2016-11-29T04:50:14.677Z,99.99
2016-11-29T04:50:42.247Z,99.99
2016-11-29T04:51:09.956Z,99.99
2016-11-29T04:51:37.889Z,99.99
2016-11-29T04:52:05.505Z,99.99
2016-11-29T04:52:33.116Z,99.99
2016-11-29T04:53:00.988Z,99.99
2016-11-29T04:53:28.630Z,99.99
2016-11-29T04:53:56.311Z,99.99
2016-11-29T04:54:23.964Z,99.99
2016-11-29T04:54:51.591Z,99.99
2016-11-29T04:55:19.144Z,99.99
2016-11-29T04:55:47.018Z,99.99
2016-11-29T04:56:14.645Z,99.99
2016-11-29T04:56:42.238Z,99.99
2016-11-29T04:57:09.906Z,99.99
2016-11-29T04:57:38.387Z,99.99
2016-11-29T04:58:06.031Z,99.99
2016-11-29T04:58:33.914Z,99.99
2016-11-29T04:59:01.748Z,99.99
2016-11-29T04:59:29.451Z,99.99
2016-11-29T04:59:57.284Z,99.99
2016-11-29T05:00:25.205Z,99.99
2016-11-29T05:00:52.825Z,99.99
2016-11-29T05:01:20.781Z,99.99
2016-11-29T05:01:48.661Z,99.99
2016-11-29T05:02:16.889Z,99.99
2016-11-29T05:02:45.017Z,99.99
2016-11-29T05:03:13.229Z,99.99
2016-11-29T05:03:41.171Z,99.99
2016-11-29T05:04:09.428Z,99.99
2016-11-29T05:04:37.589Z,99.99
2016-11-29T05:05:05.177Z,99.99
2016-11-29T05:05:33.124Z,99.99
2016-11-29T05:06:00.694Z,99.99
2016-11-29T05:06:28.587Z,99.99
2016-11-29T05:06:56.766Z,99.99
2016-11-29T05:07:24.375Z,99.99
2016-11-29T05:07:52.370Z,99.99
2016-11-29T05:08:20.284Z,99.99
2016-11-29T05:08:48.124Z,99.99
2016-11-29T05:09:15.739Z,99.99
2016-11-29T05:09:43.385Z,99.99
2016-11-29T05:10:11.020Z,99.99
2016-11-29T05:10:38.574Z,99.99
2016-11-29T05:11:06.466Z,99.99
2016-11-29T05:11:34.098Z,99.99
2016-11-29T05:12:02.080Z,99.99
2016-11-29T05:12:29.654Z,99.99
2016-11-29T05:12:57.893Z,99.99
2016-11-29T05:13:25.774Z,99.99
2016-11-29T05:13:53.761Z,99.99
2016-11-29T05:14:21.660Z,99.99
2016-11-29T05:14:49.229Z,99.99
2016-11-29T05:15:16.819Z,99.99
2016-11-29T05:15:44.456Z,99.99
2016-11-29T05:16:12.633Z,99.99
2016-11-29T05:16:40.525Z,99.99
2016-11-29T05:17:08.080Z,99.99
2016-11-29T05:17:35.754Z,99.99
2016-11-29T05:18:03.662Z,99.99
2016-11-29T05:18:31.548Z,99.99
2016-11-29T05:18:59.132Z,99.99
2016-11-29T05:19:27.111Z,99.99
2016-11-29T05:19:54.776Z,99.99
2016-11-29T05:20:22.380Z,99.99
2016-11-29T05:20:50.321Z,99.99
2016-11-29T05:21:17.851Z,99.99
2016-11-29T05:21:45.720Z,99.99
2016-11-29T05:22:13.656Z,99.99
2016-11-29T05:22:41.527Z,99.99
2016-11-29T05:23:09.749Z,99.99
2016-11-29T05:23:37.960Z,99.99
2016-11-29T05:24:06.019Z,99.99
2016-11-29T05:24:33.919Z,99.99
2016-11-29T05:25:01.498Z,99.99
2016-11-29T05:25:29.641Z,99.99
2016-11-29T05:25:58.140Z,99.99
2016-11-29T05:26:25.708Z,99.99
2016-11-29T05:26:53.559Z,99.99
2016-11-29T05:27:21.486Z,99.99
2016-11-29T05:27:49.758Z,99.99
2016-11-29T05:28:17.343Z,99.99
2016-11-29T05:28:44.957Z,99.99
2016-11-29T05:29:12.944Z,99.99
2016-11-29T05:29:40.542Z,99.99
2016-11-29T05:30:08.181Z,99.99
2016-11-29T05:30:35.756Z,99.99
2016-11-29T05:31:03.616Z,99.99
2016-11-29T05:31:31.254Z,99.99
2016-11-29T05:31:58.811Z,99.99
2016-11-29T05:32:26.443Z,99.99
2016-11-29T05:32:54.029Z,99.99
2016-11-29T05:33:21.924Z,99.99
2016-11-29T05:33:49.581Z,99.99
2016-11-29T05:34:17.227Z,99.99
2016-11-29T05:34:44.841Z,99.99
2016-11-29T05:35:12.517Z,99.99
2016-11-29T05:35:40.527Z,99.99
2016-11-29T05:36:08.422Z,99.99
2016-11-29T05:36:36.359Z,99.99
2016-11-29T05:37:04.313Z,99.99
2016-11-29T05:37:31.923Z,99.99
2016-11-29T05:37:59.588Z,99.99
2016-11-29T05:38:27.849Z,99.99
2016-11-29T05:38:55.751Z,99.99
2016-11-29T05:39:23.628Z,99.99
2016-11-29T05:39:51.508Z,99.99
2016-11-29T05:40:19.096Z,99.99
2016-11-29T05:40:46.957Z,99.99
2016-11-29T05:41:14.558Z,99.99
2016-11-29T05:41:42.180Z,99.99
2016-11-29T05:42:09.814Z,99.99
2016-11-29T05:42:37.826Z,99.99
2016-11-29T05:43:06.013Z,99.99
2016-11-29T05:43:33.590Z,99.99
2016-11-29T05:44:01.436Z,99.99
2016-11-29T05:44:29.303Z,99.99
2016-11-29T05:44:56.908Z,99.99
2016-11-29T05:45:24.511Z,99.99
2016-11-29T05:45:52.414Z,99.99
2016-11-29T05:46:20.040Z,99.99
2016-11-29T05:46:47.921Z,99.99
2016-11-29T05:47:15.797Z,99.99
2016-11-29T05:47:43.728Z,99.99
2016-11-29T05:48:11.572Z,99.99
2016-11-29T05:48:39.169Z,99.99
2016-11-29T05:49:06.847Z,99.99
2016-11-29T05:49:34.592Z,99.99
2016-11-29T05:50:02.437Z,99.99
2016-11-29T05:50:29.980Z,99.99
2016-11-29T05:50:58.509Z,99.99
2016-11-29T05:51:26.045Z,99.99
2016-11-29T05:51:53.649Z,99.99
2016-11-29T05:52:21.344Z,99.99
2016-11-29T05:52:49.274Z,99.99
2016-11-29T05:53:17.205Z,99.99
2016-11-29T05:53:44.807Z,99.99
2016-11-29T05:54:12.467Z,99.99
2016-11-29T05:54:40.681Z,99.99
2016-11-29T05:55:08.584Z,99.99
2016-11-29T05:55:36.149Z,99.99
2016-11-29T05:56:04.427Z,99.99
2016-11-29T05:56:32.037Z,99.99
2016-11-29T05:56:59.639Z,99.99
2016-11-29T05:57:27.592Z,99.99
2016-11-29T05:57:55.244Z,99.99
2016-11-29T05:58:22.862Z,99.99
2016-11-29T05:58:50.779Z,99.99
2016-11-29T05:59:18.546Z,99.99